Ana Sayfa
METAR-TAF:

METAR-TAF

Havaalanları :

Zvartnots Uluslararası Havalimanı

Erivan, Ermenistan

Enlem: 40-08-50N, Boylam: 044-23-45E, yükseklik: 865 m

Güncel hava durumu gözlemi

Rapor saat 16:00 UTC de 43 dakika önce yapıldı.
Rüzgar kuzeydan 2 kt
Sıcaklık 1°C
Nem 59%
Basınç 1026 hPa
Görüş mesafesi: 6000 m

METAR: UDYZ 181600Z 36002KT 6000 NSC 01/M06 Q1026 R09/010070 NOSIG

Saat: 20:43 (16:43 UTC)

Tahmin

Rapor saat 11:02 UTC de 5 saat ve 41 dakika önce yapıldı.
Ayın 18'si saat 12 UTC'den ayın 19'si saat 12 UTC'ye kadar geçerli Tahmin
Rüzgar değişken yönden 4 kt
Görüş mesafesi: 6000 m
Geçici
ayın 18'si saat 18 UTC'den ayın 19'si saat 06 UTC'ye kadar
Görüş mesafesi: 3500 m
Pus

TAF: UDYZ 181102Z 1812/1912 VRB04KT 6000 NSC TEMPO 1818/1906 3500 BR

4.000'den fazla havaalanı için hava durumu gözlemleri ve tahminleri (METAR ve TAF raporları).

Kullanılabilir istasyonlar harita üzerinde sarı ve kırmızı noktalarla gösterilir.

İstasyonun adını görmek için fareyi noktanın üzerinde gezdirin.

Sonrasında hava gözlem ve tahminlerini görmek için tıklayın.

Haritayı değiştirmek için: yaklaştırmak için siyah artı işaretli yeşil düğmeye ve uzaklaştırmak için de eksi işaretli düğmeye hızla tıklayın; bitişik haritalar için yeşil okları kullanın.


METAR-TAF: